sensor_id;sensor_type;location;lat;lon;timestamp;P1;durP1;ratioP1;P2;durP2;ratioP2
84858;SDS011;75115;42.984;23.244;2024-03-02T00:01:50;40.30;;;18.67;;
84858;SDS011;75115;42.984;23.244;2024-03-02T00:04:16;37.10;;;17.58;;
84858;SDS011;75115;42.984;23.244;2024-03-02T00:06:42;38.17;;;16.48;;
84858;SDS011;75115;42.984;23.244;2024-03-02T00:09:08;36.47;;;17.30;;
84858;SDS011;75115;42.984;23.244;2024-03-02T00:11:37;37.40;;;18.20;;
84858;SDS011;75115;42.984;23.244;2024-03-02T00:14:03;34.45;;;15.98;;
84858;SDS011;75115;42.984;23.244;2024-03-02T00:16:31;41.17;;;17.50;;
84858;SDS011;75115;42.984;23.244;2024-03-02T00:19:05;33.83;;;17.00;;
84858;SDS011;75115;42.984;23.244;2024-03-02T00:21:32;40.13;;;17.98;;
84858;SDS011;75115;42.984;23.244;2024-03-02T00:23:58;33.97;;;17.10;;
84858;SDS011;75115;42.984;23.244;2024-03-02T00:26:25;37.55;;;17.75;;
84858;SDS011;75115;42.984;23.244;2024-03-02T00:28:51;35.53;;;16.67;;
84858;SDS011;75115;42.984;23.244;2024-03-02T00:31:22;42.38;;;21.77;;
84858;SDS011;75115;42.984;23.244;2024-03-02T00:33:48;38.63;;;19.00;;
84858;SDS011;75115;42.984;23.244;2024-03-02T00:36:15;38.00;;;19.67;;
84858;SDS011;75115;42.984;23.244;2024-03-02T00:38:46;44.70;;;20.52;;
84858;SDS011;75115;42.984;23.244;2024-03-02T00:41:16;36.33;;;18.50;;
84858;SDS011;75115;42.984;23.244;2024-03-02T00:43:58;41.13;;;18.42;;
84858;SDS011;75115;42.984;23.244;2024-03-02T00:46:27;37.83;;;18.23;;
84858;SDS011;75115;42.984;23.244;2024-03-02T00:51:21;39.53;;;17.85;;
84858;SDS011;75115;42.984;23.244;2024-03-02T00:53:48;35.40;;;17.27;;
84858;SDS011;75115;42.984;23.244;2024-03-02T00:56:15;39.05;;;17.05;;
84858;SDS011;75115;42.984;23.244;2024-03-02T00:58:42;34.58;;;17.17;;
84858;SDS011;75115;42.984;23.244;2024-03-02T01:01:07;36.13;;;16.77;;
84858;SDS011;75115;42.984;23.244;2024-03-02T01:03:33;38.45;;;16.83;;
84858;SDS011;75115;42.984;23.244;2024-03-02T01:05:59;38.70;;;17.23;;
84858;SDS011;75115;42.984;23.244;2024-03-02T01:08:24;39.40;;;17.45;;
84858;SDS011;75115;42.984;23.244;2024-03-02T01:10:51;37.53;;;17.27;;
84858;SDS011;75115;42.984;23.244;2024-03-02T01:13:16;41.53;;;18.60;;
84858;SDS011;75115;42.984;23.244;2024-03-02T01:15:41;56.22;;;24.38;;
84858;SDS011;75115;42.984;23.244;2024-03-02T01:18:07;57.55;;;26.25;;
84858;SDS011;75115;42.984;23.244;2024-03-02T01:20:32;50.08;;;24.33;;
84858;SDS011;75115;42.984;23.244;2024-03-02T01:22:58;56.72;;;26.15;;
84858;SDS011;75115;42.984;23.244;2024-03-02T01:25:23;81.28;;;32.70;;
84858;SDS011;75115;42.984;23.244;2024-03-02T01:27:50;65.53;;;29.55;;
84858;SDS011;75115;42.984;23.244;2024-03-02T01:30:15;53.03;;;23.58;;
84858;SDS011;75115;42.984;23.244;2024-03-02T01:32:41;40.40;;;18.83;;
84858;SDS011;75115;42.984;23.244;2024-03-02T01:35:06;44.22;;;18.58;;
84858;SDS011;75115;42.984;23.244;2024-03-02T01:37:32;71.78;;;26.30;;
84858;SDS011;75115;42.984;23.244;2024-03-02T01:39:58;93.53;;;31.42;;
84858;SDS011;75115;42.984;23.244;2024-03-02T01:42:23;35.13;;;16.30;;
84858;SDS011;75115;42.984;23.244;2024-03-02T01:44:49;34.63;;;14.65;;
84858;SDS011;75115;42.984;23.244;2024-03-02T01:47:15;27.35;;;13.32;;
84858;SDS011;75115;42.984;23.244;2024-03-02T01:49:40;27.45;;;15.23;;
84858;SDS011;75115;42.984;23.244;2024-03-02T01:52:06;29.40;;;14.13;;
84858;SDS011;75115;42.984;23.244;2024-03-02T01:54:32;24.95;;;13.77;;
84858;SDS011;75115;42.984;23.244;2024-03-02T01:56:57;32.78;;;15.07;;
84858;SDS011;75115;42.984;23.244;2024-03-02T01:59:23;31.77;;;16.98;;
84858;SDS011;75115;42.984;23.244;2024-03-02T02:01:48;35.00;;;16.58;;
84858;SDS011;75115;42.984;23.244;2024-03-02T02:04:14;33.28;;;14.98;;
84858;SDS011;75115;42.984;23.244;2024-03-02T02:06:39;38.20;;;16.85;;
84858;SDS011;75115;42.984;23.244;2024-03-02T02:09:05;35.75;;;16.52;;
84858;SDS011;75115;42.984;23.244;2024-03-02T02:13:58;42.75;;;18.02;;
84858;SDS011;75115;42.984;23.244;2024-03-02T02:16:24;42.30;;;17.42;;
84858;SDS011;75115;42.984;23.244;2024-03-02T02:18:49;37.42;;;16.92;;
84858;SDS011;75115;42.984;23.244;2024-03-02T02:21:14;36.88;;;16.63;;
84858;SDS011;75115;42.984;23.244;2024-03-02T02:23:40;36.55;;;17.35;;
84858;SDS011;75115;42.984;23.244;2024-03-02T02:26:07;35.10;;;15.90;;
84858;SDS011;75115;42.984;23.244;2024-03-02T02:28:32;33.72;;;16.13;;
84858;SDS011;75115;42.984;23.244;2024-03-02T02:30:58;32.28;;;16.30;;
84858;SDS011;75115;42.984;23.244;2024-03-02T02:33:25;31.08;;;14.15;;
84858;SDS011;75115;42.984;23.244;2024-03-02T02:35:50;37.00;;;16.33;;
84858;SDS011;75115;42.984;23.244;2024-03-02T02:38:16;32.00;;;15.38;;
84858;SDS011;75115;42.984;23.244;2024-03-02T02:40:41;36.03;;;17.30;;
84858;SDS011;75115;42.984;23.244;2024-03-02T02:43:06;33.65;;;15.50;;
84858;SDS011;75115;42.984;23.244;2024-03-02T02:45:32;33.75;;;14.85;;
84858;SDS011;75115;42.984;23.244;2024-03-02T02:47:57;40.05;;;16.75;;
84858;SDS011;75115;42.984;23.244;2024-03-02T02:50:23;31.65;;;14.80;;
84858;SDS011;75115;42.984;23.244;2024-03-02T02:52:48;32.15;;;14.38;;
84858;SDS011;75115;42.984;23.244;2024-03-02T02:55:13;31.65;;;16.27;;
84858;SDS011;75115;42.984;23.244;2024-03-02T02:57:41;31.90;;;14.40;;
84858;SDS011;75115;42.984;23.244;2024-03-02T03:00:08;29.50;;;13.52;;
84858;SDS011;75115;42.984;23.244;2024-03-02T03:02:42;30.98;;;14.40;;
84858;SDS011;75115;42.984;23.244;2024-03-02T03:05:09;31.40;;;15.05;;
84858;SDS011;75115;42.984;23.244;2024-03-02T03:07:36;36.15;;;15.95;;
84858;SDS011;75115;42.984;23.244;2024-03-02T03:10:02;30.08;;;14.85;;
84858;SDS011;75115;42.984;23.244;2024-03-02T03:12:29;31.80;;;15.30;;
84858;SDS011;75115;42.984;23.244;2024-03-02T03:14:55;36.92;;;15.93;;
84858;SDS011;75115;42.984;23.244;2024-03-02T03:17:21;33.13;;;15.70;;
84858;SDS011;75115;42.984;23.244;2024-03-02T03:19:47;35.47;;;16.10;;
84858;SDS011;75115;42.984;23.244;2024-03-02T03:22:12;36.33;;;16.98;;
84858;SDS011;75115;42.984;23.244;2024-03-02T03:24:38;35.13;;;16.05;;
84858;SDS011;75115;42.984;23.244;2024-03-02T03:27:03;40.22;;;15.40;;
84858;SDS011;75115;42.984;23.244;2024-03-02T03:29:29;37.38;;;16.55;;
84858;SDS011;75115;42.984;23.244;2024-03-02T03:31:54;32.65;;;15.18;;
84858;SDS011;75115;42.984;23.244;2024-03-02T03:34:20;35.28;;;16.48;;
84858;SDS011;75115;42.984;23.244;2024-03-02T03:36:45;27.98;;;14.40;;
84858;SDS011;75115;42.984;23.244;2024-03-02T03:39:10;31.67;;;13.65;;
84858;SDS011;75115;42.984;23.244;2024-03-02T03:41:36;31.48;;;15.18;;
84858;SDS011;75115;42.984;23.244;2024-03-02T03:44:01;32.72;;;14.50;;
84858;SDS011;75115;42.984;23.244;2024-03-02T03:46:27;38.13;;;17.08;;
84858;SDS011;75115;42.984;23.244;2024-03-02T03:48:52;36.95;;;15.38;;
84858;SDS011;75115;42.984;23.244;2024-03-02T03:51:17;31.58;;;14.43;;
84858;SDS011;75115;42.984;23.244;2024-03-02T03:53:43;27.20;;;12.55;;
84858;SDS011;75115;42.984;23.244;2024-03-02T03:56:08;27.25;;;11.60;;
84858;SDS011;75115;42.984;23.244;2024-03-02T03:58:33;26.08;;;12.85;;
84858;SDS011;75115;42.984;23.244;2024-03-02T04:00:59;40.80;;;19.98;;
84858;SDS011;75115;42.984;23.244;2024-03-02T04:03:24;47.10;;;21.00;;
84858;SDS011;75115;42.984;23.244;2024-03-02T04:05:50;28.08;;;14.57;;
84858;SDS011;75115;42.984;23.244;2024-03-02T04:08:15;34.30;;;14.10;;
84858;SDS011;75115;42.984;23.244;2024-03-02T04:10:41;30.35;;;12.90;;
84858;SDS011;75115;42.984;23.244;2024-03-02T04:13:07;32.80;;;13.98;;
84858;SDS011;75115;42.984;23.244;2024-03-02T04:15:32;32.75;;;13.63;;
84858;SDS011;75115;42.984;23.244;2024-03-02T04:17:58;28.73;;;13.57;;
84858;SDS011;75115;42.984;23.244;2024-03-02T04:20:23;36.58;;;14.85;;
84858;SDS011;75115;42.984;23.244;2024-03-02T04:22:49;40.05;;;16.35;;
84858;SDS011;75115;42.984;23.244;2024-03-02T04:25:14;33.22;;;13.43;;
84858;SDS011;75115;42.984;23.244;2024-03-02T04:27:39;34.08;;;14.38;;
84858;SDS011;75115;42.984;23.244;2024-03-02T04:30:06;29.73;;;12.93;;
84858;SDS011;75115;42.984;23.244;2024-03-02T04:32:32;27.60;;;12.52;;
84858;SDS011;75115;42.984;23.244;2024-03-02T04:34:57;27.60;;;13.02;;
84858;SDS011;75115;42.984;23.244;2024-03-02T04:37:22;27.73;;;12.98;;
84858;SDS011;75115;42.984;23.244;2024-03-02T04:39:48;29.52;;;13.88;;
84858;SDS011;75115;42.984;23.244;2024-03-02T04:42:13;33.45;;;14.10;;
84858;SDS011;75115;42.984;23.244;2024-03-02T04:44:39;32.35;;;14.50;;
84858;SDS011;75115;42.984;23.244;2024-03-02T04:47:04;40.30;;;18.38;;
84858;SDS011;75115;42.984;23.244;2024-03-02T04:49:30;47.10;;;19.80;;
84858;SDS011;75115;42.984;23.244;2024-03-02T04:51:55;51.38;;;20.48;;
84858;SDS011;75115;42.984;23.244;2024-03-02T04:54:22;38.97;;;17.70;;
84858;SDS011;75115;42.984;23.244;2024-03-02T04:56:47;35.50;;;15.63;;
84858;SDS011;75115;42.984;23.244;2024-03-02T04:59:16;37.92;;;16.83;;
84858;SDS011;75115;42.984;23.244;2024-03-02T05:01:43;37.88;;;16.10;;
84858;SDS011;75115;42.984;23.244;2024-03-02T05:04:09;36.85;;;15.93;;
84858;SDS011;75115;42.984;23.244;2024-03-02T05:06:37;32.65;;;16.35;;
84858;SDS011;75115;42.984;23.244;2024-03-02T05:09:03;36.88;;;17.17;;
84858;SDS011;75115;42.984;23.244;2024-03-02T05:11:29;32.67;;;15.45;;
84858;SDS011;75115;42.984;23.244;2024-03-02T05:14:13;34.55;;;14.90;;
84858;SDS011;75115;42.984;23.244;2024-03-02T05:16:39;32.38;;;14.25;;
84858;SDS011;75115;42.984;23.244;2024-03-02T05:19:05;38.17;;;16.52;;
84858;SDS011;75115;42.984;23.244;2024-03-02T05:21:34;37.75;;;15.65;;
84858;SDS011;75115;42.984;23.244;2024-03-02T05:23:59;34.97;;;16.55;;
84858;SDS011;75115;42.984;23.244;2024-03-02T05:26:25;37.85;;;16.60;;
84858;SDS011;75115;42.984;23.244;2024-03-02T05:28:50;37.88;;;16.90;;
84858;SDS011;75115;42.984;23.244;2024-03-02T05:31:16;35.63;;;15.57;;
84858;SDS011;75115;42.984;23.244;2024-03-02T05:33:42;32.58;;;15.52;;
84858;SDS011;75115;42.984;23.244;2024-03-02T05:36:07;28.10;;;12.88;;
84858;SDS011;75115;42.984;23.244;2024-03-02T05:38:36;31.10;;;14.15;;
84858;SDS011;75115;42.984;23.244;2024-03-02T05:41:02;29.58;;;13.93;;
84858;SDS011;75115;42.984;23.244;2024-03-02T05:43:27;31.63;;;14.02;;
84858;SDS011;75115;42.984;23.244;2024-03-02T05:45:53;30.30;;;13.52;;
84858;SDS011;75115;42.984;23.244;2024-03-02T05:48:19;35.53;;;15.07;;
84858;SDS011;75115;42.984;23.244;2024-03-02T05:50:44;32.92;;;14.55;;
84858;SDS011;75115;42.984;23.244;2024-03-02T05:53:09;32.45;;;15.27;;
84858;SDS011;75115;42.984;23.244;2024-03-02T05:55:35;35.88;;;15.68;;
84858;SDS011;75115;42.984;23.244;2024-03-02T05:58:00;29.70;;;14.45;;
84858;SDS011;75115;42.984;23.244;2024-03-02T06:00:32;31.55;;;14.60;;
84858;SDS011;75115;42.984;23.244;2024-03-02T06:02:58;38.10;;;16.42;;
84858;SDS011;75115;42.984;23.244;2024-03-02T06:05:23;41.72;;;19.25;;
84858;SDS011;75115;42.984;23.244;2024-03-02T06:07:49;38.72;;;17.50;;
84858;SDS011;75115;42.984;23.244;2024-03-02T06:10:15;36.40;;;17.88;;
84858;SDS011;75115;42.984;23.244;2024-03-02T06:12:41;42.25;;;16.67;;
84858;SDS011;75115;42.984;23.244;2024-03-02T06:15:06;36.45;;;16.33;;
84858;SDS011;75115;42.984;23.244;2024-03-02T06:17:32;29.50;;;15.23;;
84858;SDS011;75115;42.984;23.244;2024-03-02T06:19:57;37.65;;;17.45;;
84858;SDS011;75115;42.984;23.244;2024-03-02T06:22:23;33.90;;;17.40;;
84858;SDS011;75115;42.984;23.244;2024-03-02T06:24:50;37.17;;;18.95;;
84858;SDS011;75115;42.984;23.244;2024-03-02T06:27:15;36.05;;;17.85;;
84858;SDS011;75115;42.984;23.244;2024-03-02T06:29:41;38.28;;;17.25;;
84858;SDS011;75115;42.984;23.244;2024-03-02T06:32:07;34.60;;;16.95;;
84858;SDS011;75115;42.984;23.244;2024-03-02T06:34:32;41.60;;;19.73;;
84858;SDS011;75115;42.984;23.244;2024-03-02T06:36:58;42.25;;;21.23;;
84858;SDS011;75115;42.984;23.244;2024-03-02T06:39:23;46.47;;;22.30;;
84858;SDS011;75115;42.984;23.244;2024-03-02T06:41:48;41.80;;;20.35;;
84858;SDS011;75115;42.984;23.244;2024-03-02T06:44:14;37.95;;;19.50;;
84858;SDS011;75115;42.984;23.244;2024-03-02T06:46:39;43.08;;;20.30;;
84858;SDS011;75115;42.984;23.244;2024-03-02T06:49:04;45.17;;;20.00;;
84858;SDS011;75115;42.984;23.244;2024-03-02T06:51:30;67.38;;;25.90;;
84858;SDS011;75115;42.984;23.244;2024-03-02T06:53:55;48.08;;;22.00;;
84858;SDS011;75115;42.984;23.244;2024-03-02T06:56:21;62.70;;;29.58;;
84858;SDS011;75115;42.984;23.244;2024-03-02T06:58:46;54.47;;;26.25;;
84858;SDS011;75115;42.984;23.244;2024-03-02T07:01:12;42.15;;;19.58;;
84858;SDS011;75115;42.984;23.244;2024-03-02T07:03:38;54.33;;;24.52;;
84858;SDS011;75115;42.984;23.244;2024-03-02T07:06:05;51.67;;;25.25;;
84858;SDS011;75115;42.984;23.244;2024-03-02T07:08:31;51.97;;;25.75;;
84858;SDS011;75115;42.984;23.244;2024-03-02T07:10:56;50.40;;;22.88;;
84858;SDS011;75115;42.984;23.244;2024-03-02T07:13:22;43.28;;;22.00;;
84858;SDS011;75115;42.984;23.244;2024-03-02T07:15:47;47.67;;;21.10;;
84858;SDS011;75115;42.984;23.244;2024-03-02T07:18:29;43.33;;;22.08;;
84858;SDS011;75115;42.984;23.244;2024-03-02T07:20:55;41.40;;;21.35;;
84858;SDS011;75115;42.984;23.244;2024-03-02T07:23:23;43.20;;;22.38;;
84858;SDS011;75115;42.984;23.244;2024-03-02T07:25:52;42.42;;;20.33;;
84858;SDS011;75115;42.984;23.244;2024-03-02T07:28:20;41.92;;;20.85;;
84858;SDS011;75115;42.984;23.244;2024-03-02T07:30:45;47.30;;;20.88;;
84858;SDS011;75115;42.984;23.244;2024-03-02T07:33:11;51.40;;;24.08;;
84858;SDS011;75115;42.984;23.244;2024-03-02T07:35:36;44.42;;;20.40;;
84858;SDS011;75115;42.984;23.244;2024-03-02T07:38:02;40.35;;;20.27;;
84858;SDS011;75115;42.984;23.244;2024-03-02T07:40:28;73.65;;;34.25;;
84858;SDS011;75115;42.984;23.244;2024-03-02T07:42:54;41.00;;;20.25;;
84858;SDS011;75115;42.984;23.244;2024-03-02T07:45:19;40.50;;;17.85;;
84858;SDS011;75115;42.984;23.244;2024-03-02T07:47:45;38.50;;;18.73;;
84858;SDS011;75115;42.984;23.244;2024-03-02T07:50:11;42.92;;;20.45;;
84858;SDS011;75115;42.984;23.244;2024-03-02T07:52:37;35.40;;;17.60;;
84858;SDS011;75115;42.984;23.244;2024-03-02T07:55:02;31.77;;;15.90;;
84858;SDS011;75115;42.984;23.244;2024-03-02T07:57:28;52.10;;;24.38;;
84858;SDS011;75115;42.984;23.244;2024-03-02T07:59:53;35.75;;;17.77;;
84858;SDS011;75115;42.984;23.244;2024-03-02T08:02:19;43.38;;;21.50;;
84858;SDS011;75115;42.984;23.244;2024-03-02T08:04:45;38.78;;;19.75;;
84858;SDS011;75115;42.984;23.244;2024-03-02T08:07:11;27.33;;;13.05;;
84858;SDS011;75115;42.984;23.244;2024-03-02T08:09:36;26.55;;;13.32;;
84858;SDS011;75115;42.984;23.244;2024-03-02T08:12:02;34.08;;;17.95;;
84858;SDS011;75115;42.984;23.244;2024-03-02T08:14:27;26.02;;;14.57;;
84858;SDS011;75115;42.984;23.244;2024-03-02T08:16:53;34.83;;;16.95;;
84858;SDS011;75115;42.984;23.244;2024-03-02T08:19:18;33.47;;;15.77;;
84858;SDS011;75115;42.984;23.244;2024-03-02T08:21:44;38.95;;;22.55;;
84858;SDS011;75115;42.984;23.244;2024-03-02T08:24:09;31.52;;;17.52;;
84858;SDS011;75115;42.984;23.244;2024-03-02T08:26:35;69.72;;;34.70;;
84858;SDS011;75115;42.984;23.244;2024-03-02T08:29:00;54.95;;;30.75;;
84858;SDS011;75115;42.984;23.244;2024-03-02T08:31:28;32.58;;;17.27;;
84858;SDS011;75115;42.984;23.244;2024-03-02T08:33:54;25.70;;;11.55;;
84858;SDS011;75115;42.984;23.244;2024-03-02T08:36:19;16.60;;;9.48;;
84858;SDS011;75115;42.984;23.244;2024-03-02T08:38:45;20.60;;;11.45;;
84858;SDS011;75115;42.984;23.244;2024-03-02T08:41:11;24.33;;;12.80;;
84858;SDS011;75115;42.984;23.244;2024-03-02T08:43:39;23.75;;;11.77;;
84858;SDS011;75115;42.984;23.244;2024-03-02T08:46:05;21.65;;;10.52;;
84858;SDS011;75115;42.984;23.244;2024-03-02T08:48:31;23.45;;;12.82;;
84858;SDS011;75115;42.984;23.244;2024-03-02T08:50:56;22.73;;;12.25;;
84858;SDS011;75115;42.984;23.244;2024-03-02T08:53:21;20.60;;;11.13;;
84858;SDS011;75115;42.984;23.244;2024-03-02T08:55:47;26.92;;;11.70;;
84858;SDS011;75115;42.984;23.244;2024-03-02T08:58:12;19.48;;;10.32;;
84858;SDS011;75115;42.984;23.244;2024-03-02T09:00:38;14.25;;;7.57;;
84858;SDS011;75115;42.984;23.244;2024-03-02T09:03:04;13.40;;;7.78;;
84858;SDS011;75115;42.984;23.244;2024-03-02T09:05:29;29.27;;;16.83;;
84858;SDS011;75115;42.984;23.244;2024-03-02T09:07:55;19.10;;;11.50;;
84858;SDS011;75115;42.984;23.244;2024-03-02T09:10:20;16.15;;;8.52;;
84858;SDS011;75115;42.984;23.244;2024-03-02T09:12:46;15.55;;;7.82;;
84858;SDS011;75115;42.984;23.244;2024-03-02T09:15:11;17.05;;;9.98;;
84858;SDS011;75115;42.984;23.244;2024-03-02T09:17:37;17.67;;;9.82;;
84858;SDS011;75115;42.984;23.244;2024-03-02T09:20:02;19.45;;;12.68;;
84858;SDS011;75115;42.984;23.244;2024-03-02T09:22:29;17.77;;;8.65;;
84858;SDS011;75115;42.984;23.244;2024-03-02T09:24:55;15.05;;;8.07;;
84858;SDS011;75115;42.984;23.244;2024-03-02T09:27:20;15.32;;;8.85;;
84858;SDS011;75115;42.984;23.244;2024-03-02T09:29:47;23.60;;;16.75;;
84858;SDS011;75115;42.984;23.244;2024-03-02T09:32:13;20.10;;;13.05;;
84858;SDS011;75115;42.984;23.244;2024-03-02T09:34:39;21.40;;;14.63;;
84858;SDS011;75115;42.984;23.244;2024-03-02T09:37:05;15.05;;;8.68;;
84858;SDS011;75115;42.984;23.244;2024-03-02T09:39:31;23.30;;;17.65;;
84858;SDS011;75115;42.984;23.244;2024-03-02T09:41:57;12.60;;;8.18;;
84858;SDS011;75115;42.984;23.244;2024-03-02T09:44:23;15.93;;;8.73;;
84858;SDS011;75115;42.984;23.244;2024-03-02T09:46:50;12.65;;;6.85;;
84858;SDS011;75115;42.984;23.244;2024-03-02T09:49:16;18.48;;;9.00;;
84858;SDS011;75115;42.984;23.244;2024-03-02T09:51:44;14.70;;;8.55;;
84858;SDS011;75115;42.984;23.244;2024-03-02T09:54:12;13.40;;;7.22;;
84858;SDS011;75115;42.984;23.244;2024-03-02T09:56:38;18.00;;;9.35;;
84858;SDS011;75115;42.984;23.244;2024-03-02T09:59:03;11.90;;;7.00;;
84858;SDS011;75115;42.984;23.244;2024-03-02T10:01:30;13.57;;;7.10;;
84858;SDS011;75115;42.984;23.244;2024-03-02T10:03:57;11.07;;;7.28;;
84858;SDS011;75115;42.984;23.244;2024-03-02T10:06:25;15.90;;;9.00;;
84858;SDS011;75115;42.984;23.244;2024-03-02T10:08:52;11.32;;;7.05;;
84858;SDS011;75115;42.984;23.244;2024-03-02T10:11:31;17.70;;;9.93;;
84858;SDS011;75115;42.984;23.244;2024-03-02T10:14:31;44.38;;;20.55;;
84858;SDS011;75115;42.984;23.244;2024-03-02T10:16:50;13.13;;;8.38;;
84858;SDS011;75115;42.984;23.244;2024-03-02T10:21:47;15.27;;;8.85;;
84858;SDS011;75115;42.984;23.244;2024-03-02T10:24:14;13.38;;;8.13;;
84858;SDS011;75115;42.984;23.244;2024-03-02T10:26:40;18.73;;;9.40;;
84858;SDS011;75115;42.984;23.244;2024-03-02T10:29:07;18.73;;;8.93;;
84858;SDS011;75115;42.984;23.244;2024-03-02T10:31:33;14.43;;;7.93;;
84858;SDS011;75115;42.984;23.244;2024-03-02T10:33:59;14.23;;;8.48;;
84858;SDS011;75115;42.984;23.244;2024-03-02T10:36:25;17.20;;;8.57;;
84858;SDS011;75115;42.984;23.244;2024-03-02T10:38:51;12.27;;;7.43;;
84858;SDS011;75115;42.984;23.244;2024-03-02T10:41:21;8.45;;;5.15;;
84858;SDS011;75115;42.984;23.244;2024-03-02T10:43:49;11.50;;;5.93;;
84858;SDS011;75115;42.984;23.244;2024-03-02T10:46:19;9.90;;;6.65;;
84858;SDS011;75115;42.984;23.244;2024-03-02T10:48:45;11.15;;;6.00;;
84858;SDS011;75115;42.984;23.244;2024-03-02T10:51:11;8.57;;;4.80;;
84858;SDS011;75115;42.984;23.244;2024-03-02T10:53:37;9.13;;;5.43;;
84858;SDS011;75115;42.984;23.244;2024-03-02T10:56:02;11.60;;;6.47;;
84858;SDS011;75115;42.984;23.244;2024-03-02T10:58:32;9.52;;;5.78;;
84858;SDS011;75115;42.984;23.244;2024-03-02T11:01:02;12.82;;;7.57;;
84858;SDS011;75115;42.984;23.244;2024-03-02T11:03:33;15.52;;;9.95;;
84858;SDS011;75115;42.984;23.244;2024-03-02T11:06:01;15.75;;;8.90;;
84858;SDS011;75115;42.984;23.244;2024-03-02T11:08:31;22.45;;;12.80;;
84858;SDS011;75115;42.984;23.244;2024-03-02T11:11:02;21.10;;;12.77;;
84858;SDS011;75115;42.984;23.244;2024-03-02T11:13:32;22.25;;;14.45;;
84858;SDS011;75115;42.984;23.244;2024-03-02T11:15:59;14.00;;;8.15;;
84858;SDS011;75115;42.984;23.244;2024-03-02T11:18:35;15.75;;;9.35;;
84858;SDS011;75115;42.984;23.244;2024-03-02T11:21:02;15.57;;;9.07;;
84858;SDS011;75115;42.984;23.244;2024-03-02T11:23:31;13.32;;;8.25;;
84858;SDS011;75115;42.984;23.244;2024-03-02T11:26:17;16.40;;;8.10;;
84858;SDS011;75115;42.984;23.244;2024-03-02T11:28:46;14.10;;;7.65;;
84858;SDS011;75115;42.984;23.244;2024-03-02T11:31:12;15.38;;;8.10;;
84858;SDS011;75115;42.984;23.244;2024-03-02T11:33:37;23.88;;;12.18;;
84858;SDS011;75115;42.984;23.244;2024-03-02T11:36:03;28.60;;;15.27;;
84858;SDS011;75115;42.984;23.244;2024-03-02T11:38:35;26.48;;;15.13;;
84858;SDS011;75115;42.984;23.244;2024-03-02T11:41:02;34.47;;;17.67;;
84858;SDS011;75115;42.984;23.244;2024-03-02T11:43:32;23.15;;;11.88;;
84858;SDS011;75115;42.984;23.244;2024-03-02T11:46:03;22.02;;;11.02;;
84858;SDS011;75115;42.984;23.244;2024-03-02T11:48:32;24.40;;;12.95;;
84858;SDS011;75115;42.984;23.244;2024-03-02T11:51:00;21.35;;;11.70;;
84858;SDS011;75115;42.984;23.244;2024-03-02T11:53:26;20.52;;;11.80;;
84858;SDS011;75115;42.984;23.244;2024-03-02T11:55:57;26.92;;;13.40;;
84858;SDS011;75115;42.984;23.244;2024-03-02T11:58:24;28.13;;;13.98;;
84858;SDS011;75115;42.984;23.244;2024-03-02T12:00:52;77.80;;;34.05;;
84858;SDS011;75115;42.984;23.244;2024-03-02T12:03:21;57.90;;;28.58;;
84858;SDS011;75115;42.984;23.244;2024-03-02T12:05:51;22.52;;;12.02;;
84858;SDS011;75115;42.984;23.244;2024-03-02T12:08:18;26.98;;;15.68;;
84858;SDS011;75115;42.984;23.244;2024-03-02T12:10:43;34.78;;;20.05;;
84858;SDS011;75115;42.984;23.244;2024-03-02T12:13:21;29.48;;;14.35;;
84858;SDS011;75115;42.984;23.244;2024-03-02T12:15:47;23.45;;;13.13;;
84858;SDS011;75115;42.984;23.244;2024-03-02T12:18:13;17.33;;;10.55;;
84858;SDS011;75115;42.984;23.244;2024-03-02T12:20:38;31.08;;;17.17;;
84858;SDS011;75115;42.984;23.244;2024-03-02T12:23:04;25.52;;;13.23;;
84858;SDS011;75115;42.984;23.244;2024-03-02T12:25:31;26.05;;;12.70;;
84858;SDS011;75115;42.984;23.244;2024-03-02T12:27:59;19.58;;;11.00;;
84858;SDS011;75115;42.984;23.244;2024-03-02T12:30:26;18.90;;;10.50;;
84858;SDS011;75115;42.984;23.244;2024-03-02T12:32:54;31.02;;;16.38;;
84858;SDS011;75115;42.984;23.244;2024-03-02T12:35:20;24.17;;;13.45;;
84858;SDS011;75115;42.984;23.244;2024-03-02T12:37:49;26.33;;;15.02;;
84858;SDS011;75115;42.984;23.244;2024-03-02T12:40:16;20.67;;;11.45;;
84858;SDS011;75115;42.984;23.244;2024-03-02T12:45:09;17.90;;;11.10;;
84858;SDS011;75115;42.984;23.244;2024-03-02T12:47:34;18.27;;;10.68;;
84858;SDS011;75115;42.984;23.244;2024-03-02T12:50:00;19.35;;;9.68;;
84858;SDS011;75115;42.984;23.244;2024-03-02T12:52:27;26.30;;;16.55;;
84858;SDS011;75115;42.984;23.244;2024-03-02T12:54:52;27.25;;;16.95;;
84858;SDS011;75115;42.984;23.244;2024-03-02T12:57:24;28.50;;;16.98;;
84858;SDS011;75115;42.984;23.244;2024-03-02T12:59:51;23.38;;;15.02;;
84858;SDS011;75115;42.984;23.244;2024-03-02T13:02:17;24.88;;;14.43;;
84858;SDS011;75115;42.984;23.244;2024-03-02T13:04:43;23.85;;;13.45;;
84858;SDS011;75115;42.984;23.244;2024-03-02T13:07:10;19.42;;;11.63;;
84858;SDS011;75115;42.984;23.244;2024-03-02T13:09:37;21.48;;;11.43;;
84858;SDS011;75115;42.984;23.244;2024-03-02T13:12:02;20.10;;;11.63;;
84858;SDS011;75115;42.984;23.244;2024-03-02T13:14:31;25.00;;;14.45;;
84858;SDS011;75115;42.984;23.244;2024-03-02T13:17:01;22.02;;;11.48;;
84858;SDS011;75115;42.984;23.244;2024-03-02T13:19:29;20.52;;;11.68;;
84858;SDS011;75115;42.984;23.244;2024-03-02T13:21:56;21.77;;;12.77;;
84858;SDS011;75115;42.984;23.244;2024-03-02T13:24:22;21.48;;;12.57;;
84858;SDS011;75115;42.984;23.244;2024-03-02T13:26:50;26.15;;;14.27;;
84858;SDS011;75115;42.984;23.244;2024-03-02T13:29:20;27.42;;;14.32;;
84858;SDS011;75115;42.984;23.244;2024-03-02T13:31:46;25.60;;;14.57;;
84858;SDS011;75115;42.984;23.244;2024-03-02T13:34:11;18.83;;;12.40;;
84858;SDS011;75115;42.984;23.244;2024-03-02T13:36:37;20.70;;;10.95;;
84858;SDS011;75115;42.984;23.244;2024-03-02T13:39:03;20.88;;;10.45;;
84858;SDS011;75115;42.984;23.244;2024-03-02T13:41:30;19.45;;;9.40;;
84858;SDS011;75115;42.984;23.244;2024-03-02T13:43:56;15.00;;;8.23;;
84858;SDS011;75115;42.984;23.244;2024-03-02T13:46:22;14.10;;;7.95;;
84858;SDS011;75115;42.984;23.244;2024-03-02T13:48:47;18.45;;;11.00;;
84858;SDS011;75115;42.984;23.244;2024-03-02T13:51:13;41.25;;;24.35;;
84858;SDS011;75115;42.984;23.244;2024-03-02T13:53:38;24.55;;;13.90;;
84858;SDS011;75115;42.984;23.244;2024-03-02T13:56:05;12.95;;;7.65;;
84858;SDS011;75115;42.984;23.244;2024-03-02T13:58:31;13.93;;;9.10;;
84858;SDS011;75115;42.984;23.244;2024-03-02T14:00:56;16.95;;;9.80;;
84858;SDS011;75115;42.984;23.244;2024-03-02T14:03:22;15.38;;;8.93;;
84858;SDS011;75115;42.984;23.244;2024-03-02T14:05:48;19.27;;;11.32;;
84858;SDS011;75115;42.984;23.244;2024-03-02T14:08:15;16.48;;;8.73;;
84858;SDS011;75115;42.984;23.244;2024-03-02T14:10:40;18.48;;;9.95;;
84858;SDS011;75115;42.984;23.244;2024-03-02T14:13:07;28.70;;;12.02;;
84858;SDS011;75115;42.984;23.244;2024-03-02T14:15:33;25.30;;;12.23;;
84858;SDS011;75115;42.984;23.244;2024-03-02T14:17:58;25.30;;;10.95;;